sensor_id;sensor_type;location;lat;lon;timestamp;P1;durP1;ratioP1;P2;durP2;ratioP2
1509;SDS011;746;48.688;9.428;2022-07-23T00:01:50;8.30;;;7.60;;
1509;SDS011;746;48.688;9.428;2022-07-23T00:04:12;8.27;;;7.60;;
1509;SDS011;746;48.688;9.428;2022-07-23T00:06:33;8.17;;;7.57;;
1509;SDS011;746;48.688;9.428;2022-07-23T00:08:54;7.43;;;6.93;;
1509;SDS011;746;48.688;9.428;2022-07-23T00:11:17;7.97;;;7.10;;
1509;SDS011;746;48.688;9.428;2022-07-23T00:13:40;7.63;;;7.03;;
1509;SDS011;746;48.688;9.428;2022-07-23T00:16:01;7.90;;;7.30;;
1509;SDS011;746;48.688;9.428;2022-07-23T00:18:23;7.50;;;6.80;;
1509;SDS011;746;48.688;9.428;2022-07-23T00:20:45;7.80;;;7.20;;
1509;SDS011;746;48.688;9.428;2022-07-23T00:23:07;7.60;;;7.00;;
1509;SDS011;746;48.688;9.428;2022-07-23T00:25:28;7.63;;;6.93;;
1509;SDS011;746;48.688;9.428;2022-07-23T00:27:51;7.50;;;7.00;;
1509;SDS011;746;48.688;9.428;2022-07-23T00:30:14;7.37;;;6.77;;
1509;SDS011;746;48.688;9.428;2022-07-23T00:32:44;8.20;;;7.50;;
1509;SDS011;746;48.688;9.428;2022-07-23T00:35:16;8.03;;;7.43;;
1509;SDS011;746;48.688;9.428;2022-07-23T00:37:39;7.60;;;7.00;;
1509;SDS011;746;48.688;9.428;2022-07-23T00:40:01;8.33;;;7.53;;
1509;SDS011;746;48.688;9.428;2022-07-23T00:42:24;7.90;;;7.20;;
1509;SDS011;746;48.688;9.428;2022-07-23T00:44:46;7.67;;;6.97;;
1509;SDS011;746;48.688;9.428;2022-07-23T00:47:09;8.10;;;7.50;;
1509;SDS011;746;48.688;9.428;2022-07-23T00:49:31;8.07;;;7.30;;
1509;SDS011;746;48.688;9.428;2022-07-23T00:51:52;7.70;;;7.00;;
1509;SDS011;746;48.688;9.428;2022-07-23T00:54:14;8.13;;;7.47;;
1509;SDS011;746;48.688;9.428;2022-07-23T00:56:37;7.87;;;7.27;;
1509;SDS011;746;48.688;9.428;2022-07-23T00:58:59;8.83;;;8.00;;
1509;SDS011;746;48.688;9.428;2022-07-23T01:01:22;7.20;;;6.57;;
1509;SDS011;746;48.688;9.428;2022-07-23T01:03:45;6.77;;;6.37;;
1509;SDS011;746;48.688;9.428;2022-07-23T01:06:07;7.40;;;6.80;;
1509;SDS011;746;48.688;9.428;2022-07-23T01:08:28;7.33;;;6.83;;
1509;SDS011;746;48.688;9.428;2022-07-23T01:10:50;7.73;;;7.13;;
1509;SDS011;746;48.688;9.428;2022-07-23T01:13:13;7.03;;;6.53;;
1509;SDS011;746;48.688;9.428;2022-07-23T01:15:35;7.50;;;7.00;;
1509;SDS011;746;48.688;9.428;2022-07-23T01:17:58;7.50;;;6.80;;
1509;SDS011;746;48.688;9.428;2022-07-23T01:20:21;7.80;;;7.07;;
1509;SDS011;746;48.688;9.428;2022-07-23T01:22:45;6.97;;;6.37;;
1509;SDS011;746;48.688;9.428;2022-07-23T01:25:07;7.27;;;6.67;;
1509;SDS011;746;48.688;9.428;2022-07-23T01:27:29;7.53;;;6.90;;
1509;SDS011;746;48.688;9.428;2022-07-23T01:29:50;7.50;;;6.90;;
1509;SDS011;746;48.688;9.428;2022-07-23T01:32:12;7.93;;;7.23;;
1509;SDS011;746;48.688;9.428;2022-07-23T01:34:34;8.10;;;7.40;;
1509;SDS011;746;48.688;9.428;2022-07-23T01:36:55;7.60;;;7.10;;
1509;SDS011;746;48.688;9.428;2022-07-23T01:39:19;7.90;;;7.23;;
1509;SDS011;746;48.688;9.428;2022-07-23T01:41:41;7.57;;;6.90;;
1509;SDS011;746;48.688;9.428;2022-07-23T01:44:09;7.70;;;7.10;;
1509;SDS011;746;48.688;9.428;2022-07-23T01:46:31;8.20;;;7.50;;
1509;SDS011;746;48.688;9.428;2022-07-23T01:48:53;7.17;;;6.67;;
1509;SDS011;746;48.688;9.428;2022-07-23T01:51:14;8.00;;;7.30;;
1509;SDS011;746;48.688;9.428;2022-07-23T01:53:36;8.30;;;7.70;;
1509;SDS011;746;48.688;9.428;2022-07-23T01:55:59;7.20;;;6.70;;
1509;SDS011;746;48.688;9.428;2022-07-23T01:58:23;8.13;;;7.53;;
1509;SDS011;746;48.688;9.428;2022-07-23T02:00:45;8.27;;;7.40;;
1509;SDS011;746;48.688;9.428;2022-07-23T02:03:07;7.70;;;7.10;;
1509;SDS011;746;48.688;9.428;2022-07-23T02:05:29;8.83;;;7.13;;
1509;SDS011;746;48.688;9.428;2022-07-23T02:07:52;9.47;;;7.27;;
1509;SDS011;746;48.688;9.428;2022-07-23T02:10:14;7.73;;;7.17;;
1509;SDS011;746;48.688;9.428;2022-07-23T02:12:37;8.23;;;7.20;;
1509;SDS011;746;48.688;9.428;2022-07-23T02:14:58;7.83;;;7.20;;
1509;SDS011;746;48.688;9.428;2022-07-23T02:17:20;7.83;;;7.27;;
1509;SDS011;746;48.688;9.428;2022-07-23T02:19:42;8.40;;;7.70;;
1509;SDS011;746;48.688;9.428;2022-07-23T02:22:03;7.70;;;7.20;;
1509;SDS011;746;48.688;9.428;2022-07-23T02:24:25;8.00;;;7.33;;
1509;SDS011;746;48.688;9.428;2022-07-23T02:26:47;7.30;;;6.80;;
1509;SDS011;746;48.688;9.428;2022-07-23T02:29:10;7.63;;;6.83;;
1509;SDS011;746;48.688;9.428;2022-07-23T02:31:32;7.83;;;7.33;;
1509;SDS011;746;48.688;9.428;2022-07-23T02:33:54;7.80;;;7.20;;
1509;SDS011;746;48.688;9.428;2022-07-23T02:36:16;7.90;;;7.30;;
1509;SDS011;746;48.688;9.428;2022-07-23T02:38:38;7.77;;;7.17;;
1509;SDS011;746;48.688;9.428;2022-07-23T02:41:00;8.33;;;7.53;;
1509;SDS011;746;48.688;9.428;2022-07-23T02:43:21;7.93;;;7.33;;
1509;SDS011;746;48.688;9.428;2022-07-23T02:45:44;8.37;;;7.47;;
1509;SDS011;746;48.688;9.428;2022-07-23T02:48:06;8.40;;;7.70;;
1509;SDS011;746;48.688;9.428;2022-07-23T02:50:28;8.17;;;7.50;;
1509;SDS011;746;48.688;9.428;2022-07-23T02:52:50;8.03;;;7.33;;
1509;SDS011;746;48.688;9.428;2022-07-23T02:55:12;8.00;;;7.40;;
1509;SDS011;746;48.688;9.428;2022-07-23T02:57:34;7.87;;;7.27;;
1509;SDS011;746;48.688;9.428;2022-07-23T02:59:55;7.93;;;7.33;;
1509;SDS011;746;48.688;9.428;2022-07-23T03:02:19;7.83;;;7.33;;
1509;SDS011;746;48.688;9.428;2022-07-23T03:04:41;8.60;;;7.90;;
1509;SDS011;746;48.688;9.428;2022-07-23T03:07:03;8.37;;;7.77;;
1509;SDS011;746;48.688;9.428;2022-07-23T03:09:25;8.67;;;7.97;;
1509;SDS011;746;48.688;9.428;2022-07-23T03:11:47;8.67;;;7.90;;
1509;SDS011;746;48.688;9.428;2022-07-23T03:14:09;8.27;;;7.67;;
1509;SDS011;746;48.688;9.428;2022-07-23T03:16:33;8.10;;;7.50;;
1509;SDS011;746;48.688;9.428;2022-07-23T03:18:56;8.70;;;8.00;;
1509;SDS011;746;48.688;9.428;2022-07-23T03:21:19;8.47;;;7.63;;
1509;SDS011;746;48.688;9.428;2022-07-23T03:23:40;8.40;;;7.60;;
1509;SDS011;746;48.688;9.428;2022-07-23T03:26:02;7.90;;;7.20;;
1509;SDS011;746;48.688;9.428;2022-07-23T03:28:24;8.00;;;7.23;;
1509;SDS011;746;48.688;9.428;2022-07-23T03:30:45;7.97;;;7.10;;
1509;SDS011;746;48.688;9.428;2022-07-23T03:33:09;7.70;;;7.10;;
1509;SDS011;746;48.688;9.428;2022-07-23T03:35:35;8.17;;;7.57;;
1509;SDS011;746;48.688;9.428;2022-07-23T03:37:57;7.40;;;6.80;;
1509;SDS011;746;48.688;9.428;2022-07-23T03:40:19;7.93;;;7.07;;
1509;SDS011;746;48.688;9.428;2022-07-23T03:42:41;8.73;;;7.97;;
1509;SDS011;746;48.688;9.428;2022-07-23T03:45:03;8.30;;;7.50;;
1509;SDS011;746;48.688;9.428;2022-07-23T03:47:25;7.40;;;6.70;;
1509;SDS011;746;48.688;9.428;2022-07-23T03:49:47;8.00;;;7.30;;
1509;SDS011;746;48.688;9.428;2022-07-23T03:52:10;7.23;;;6.67;;
1509;SDS011;746;48.688;9.428;2022-07-23T03:54:31;7.70;;;7.10;;
1509;SDS011;746;48.688;9.428;2022-07-23T03:56:53;7.93;;;7.23;;
1509;SDS011;746;48.688;9.428;2022-07-23T03:59:14;8.03;;;7.43;;
1509;SDS011;746;48.688;9.428;2022-07-23T04:01:42;8.07;;;7.37;;
1509;SDS011;746;48.688;9.428;2022-07-23T04:04:04;7.70;;;7.00;;
1509;SDS011;746;48.688;9.428;2022-07-23T04:06:26;7.53;;;7.00;;
1509;SDS011;746;48.688;9.428;2022-07-23T04:08:49;8.17;;;7.43;;
1509;SDS011;746;48.688;9.428;2022-07-23T04:11:10;8.00;;;7.33;;
1509;SDS011;746;48.688;9.428;2022-07-23T04:13:32;7.53;;;6.97;;
1509;SDS011;746;48.688;9.428;2022-07-23T04:15:54;7.87;;;7.27;;
1509;SDS011;746;48.688;9.428;2022-07-23T04:18:15;7.70;;;7.10;;
1509;SDS011;746;48.688;9.428;2022-07-23T04:20:38;8.30;;;7.70;;
1509;SDS011;746;48.688;9.428;2022-07-23T04:23:00;8.10;;;7.40;;
1509;SDS011;746;48.688;9.428;2022-07-23T04:25:23;7.70;;;7.10;;
1509;SDS011;746;48.688;9.428;2022-07-23T04:27:44;8.03;;;7.53;;
1509;SDS011;746;48.688;9.428;2022-07-23T04:30:07;7.97;;;6.90;;
1509;SDS011;746;48.688;9.428;2022-07-23T04:32:29;7.60;;;6.90;;
1509;SDS011;746;48.688;9.428;2022-07-23T04:34:51;7.43;;;6.83;;
1509;SDS011;746;48.688;9.428;2022-07-23T04:37:13;7.30;;;6.80;;
1509;SDS011;746;48.688;9.428;2022-07-23T04:39:34;7.73;;;7.07;;
1509;SDS011;746;48.688;9.428;2022-07-23T04:41:58;7.97;;;7.17;;
1509;SDS011;746;48.688;9.428;2022-07-23T04:44:19;7.30;;;6.70;;
1509;SDS011;746;48.688;9.428;2022-07-23T04:46:41;8.20;;;7.40;;
1509;SDS011;746;48.688;9.428;2022-07-23T04:49:03;7.70;;;7.10;;
1509;SDS011;746;48.688;9.428;2022-07-23T04:51:25;7.37;;;6.87;;
1509;SDS011;746;48.688;9.428;2022-07-23T04:53:48;7.50;;;6.90;;
1509;SDS011;746;48.688;9.428;2022-07-23T04:56:11;7.50;;;6.67;;
1509;SDS011;746;48.688;9.428;2022-07-23T04:58:34;7.20;;;6.60;;
1509;SDS011;746;48.688;9.428;2022-07-23T05:00:56;7.70;;;7.20;;
1509;SDS011;746;48.688;9.428;2022-07-23T05:03:18;7.27;;;6.67;;
1509;SDS011;746;48.688;9.428;2022-07-23T05:05:39;7.83;;;7.23;;
1509;SDS011;746;48.688;9.428;2022-07-23T05:08:01;8.17;;;7.47;;
1509;SDS011;746;48.688;9.428;2022-07-23T05:10:23;8.07;;;7.47;;
1509;SDS011;746;48.688;9.428;2022-07-23T05:12:46;7.43;;;6.83;;
1509;SDS011;746;48.688;9.428;2022-07-23T05:15:09;8.10;;;7.50;;
1509;SDS011;746;48.688;9.428;2022-07-23T05:17:30;7.83;;;7.23;;
1509;SDS011;746;48.688;9.428;2022-07-23T05:19:52;8.33;;;7.60;;
1509;SDS011;746;48.688;9.428;2022-07-23T05:22:19;7.97;;;7.10;;
1509;SDS011;746;48.688;9.428;2022-07-23T05:24:41;8.23;;;7.43;;
1509;SDS011;746;48.688;9.428;2022-07-23T05:27:03;8.07;;;7.47;;
1509;SDS011;746;48.688;9.428;2022-07-23T05:29:24;8.13;;;7.53;;
1509;SDS011;746;48.688;9.428;2022-07-23T05:31:47;8.37;;;7.70;;
1509;SDS011;746;48.688;9.428;2022-07-23T05:34:09;8.17;;;7.47;;
1509;SDS011;746;48.688;9.428;2022-07-23T05:36:36;7.77;;;7.27;;
1509;SDS011;746;48.688;9.428;2022-07-23T05:38:58;7.80;;;7.13;;
1509;SDS011;746;48.688;9.428;2022-07-23T05:41:20;8.63;;;7.90;;
1509;SDS011;746;48.688;9.428;2022-07-23T05:43:42;8.13;;;7.43;;
1509;SDS011;746;48.688;9.428;2022-07-23T05:46:05;8.43;;;7.63;;
1509;SDS011;746;48.688;9.428;2022-07-23T05:48:28;8.00;;;7.37;;
1509;SDS011;746;48.688;9.428;2022-07-23T05:50:49;8.57;;;7.87;;
1509;SDS011;746;48.688;9.428;2022-07-23T05:53:11;11.17;;;8.00;;
1509;SDS011;746;48.688;9.428;2022-07-23T05:55:33;8.10;;;7.37;;
1509;SDS011;746;48.688;9.428;2022-07-23T05:57:54;8.53;;;7.83;;
1509;SDS011;746;48.688;9.428;2022-07-23T06:00:16;8.30;;;7.60;;
1509;SDS011;746;48.688;9.428;2022-07-23T06:02:38;8.90;;;8.10;;
1509;SDS011;746;48.688;9.428;2022-07-23T06:05:02;8.43;;;7.50;;
1509;SDS011;746;48.688;9.428;2022-07-23T06:07:23;9.07;;;8.17;;
1509;SDS011;746;48.688;9.428;2022-07-23T06:09:45;9.67;;;8.50;;
1509;SDS011;746;48.688;9.428;2022-07-23T06:12:07;9.07;;;8.20;;
1509;SDS011;746;48.688;9.428;2022-07-23T06:14:29;8.63;;;7.83;;
1509;SDS011;746;48.688;9.428;2022-07-23T06:16:51;11.77;;;8.27;;
1509;SDS011;746;48.688;9.428;2022-07-23T06:19:13;8.67;;;7.87;;
1509;SDS011;746;48.688;9.428;2022-07-23T06:21:36;8.67;;;8.00;;
1509;SDS011;746;48.688;9.428;2022-07-23T06:24:07;8.77;;;7.80;;
1509;SDS011;746;48.688;9.428;2022-07-23T06:26:28;8.23;;;7.63;;
1509;SDS011;746;48.688;9.428;2022-07-23T06:28:50;9.70;;;8.47;;
1509;SDS011;746;48.688;9.428;2022-07-23T06:31:11;8.63;;;7.80;;
1509;SDS011;746;48.688;9.428;2022-07-23T06:33:33;9.07;;;8.37;;
1509;SDS011;746;48.688;9.428;2022-07-23T06:35:55;8.40;;;7.70;;
1509;SDS011;746;48.688;9.428;2022-07-23T06:38:18;8.70;;;7.90;;
1509;SDS011;746;48.688;9.428;2022-07-23T06:40:40;8.70;;;7.90;;
1509;SDS011;746;48.688;9.428;2022-07-23T06:43:02;9.80;;;8.90;;
1509;SDS011;746;48.688;9.428;2022-07-23T06:45:23;8.53;;;7.70;;
1509;SDS011;746;48.688;9.428;2022-07-23T06:47:45;9.53;;;8.73;;
1509;SDS011;746;48.688;9.428;2022-07-23T06:50:07;9.23;;;8.53;;
1509;SDS011;746;48.688;9.428;2022-07-23T06:52:29;8.80;;;8.17;;
1509;SDS011;746;48.688;9.428;2022-07-23T06:54:53;9.10;;;8.33;;
1509;SDS011;746;48.688;9.428;2022-07-23T06:57:14;8.83;;;8.13;;
1509;SDS011;746;48.688;9.428;2022-07-23T06:59:36;8.63;;;7.90;;
1509;SDS011;746;48.688;9.428;2022-07-23T07:02:00;8.60;;;7.90;;
1509;SDS011;746;48.688;9.428;2022-07-23T07:04:22;8.60;;;7.90;;
1509;SDS011;746;48.688;9.428;2022-07-23T07:06:44;8.13;;;7.43;;
1509;SDS011;746;48.688;9.428;2022-07-23T07:09:06;8.40;;;7.70;;
1509;SDS011;746;48.688;9.428;2022-07-23T07:11:29;9.00;;;8.30;;
1509;SDS011;746;48.688;9.428;2022-07-23T07:13:50;9.97;;;7.90;;
1509;SDS011;746;48.688;9.428;2022-07-23T07:16:12;9.00;;;8.13;;
1509;SDS011;746;48.688;9.428;2022-07-23T07:18:34;8.37;;;7.77;;
1509;SDS011;746;48.688;9.428;2022-07-23T07:20:56;8.40;;;7.70;;
1509;SDS011;746;48.688;9.428;2022-07-23T07:23:19;8.97;;;7.97;;
1509;SDS011;746;48.688;9.428;2022-07-23T07:25:41;9.40;;;8.50;;
1509;SDS011;746;48.688;9.428;2022-07-23T07:28:05;8.70;;;8.07;;
1509;SDS011;746;48.688;9.428;2022-07-23T07:30:26;8.70;;;8.00;;
1509;SDS011;746;48.688;9.428;2022-07-23T07:32:53;8.37;;;7.77;;
1509;SDS011;746;48.688;9.428;2022-07-23T07:35:17;8.70;;;7.83;;
1509;SDS011;746;48.688;9.428;2022-07-23T07:37:38;8.60;;;8.00;;
1509;SDS011;746;48.688;9.428;2022-07-23T07:40:00;8.77;;;7.90;;
1509;SDS011;746;48.688;9.428;2022-07-23T07:42:22;8.70;;;8.10;;
1509;SDS011;746;48.688;9.428;2022-07-23T07:44:45;8.27;;;7.67;;
1509;SDS011;746;48.688;9.428;2022-07-23T07:47:07;8.70;;;8.00;;
1509;SDS011;746;48.688;9.428;2022-07-23T07:49:29;8.73;;;7.93;;
1509;SDS011;746;48.688;9.428;2022-07-23T07:51:54;7.97;;;7.37;;
1509;SDS011;746;48.688;9.428;2022-07-23T07:54:15;8.13;;;7.43;;
1509;SDS011;746;48.688;9.428;2022-07-23T07:56:37;7.63;;;7.10;;
1509;SDS011;746;48.688;9.428;2022-07-23T07:58:59;7.63;;;6.93;;
1509;SDS011;746;48.688;9.428;2022-07-23T08:01:23;7.30;;;6.80;;
1509;SDS011;746;48.688;9.428;2022-07-23T08:03:45;7.90;;;7.30;;
1509;SDS011;746;48.688;9.428;2022-07-23T08:06:08;7.00;;;6.50;;
1509;SDS011;746;48.688;9.428;2022-07-23T08:08:29;7.50;;;6.80;;
1509;SDS011;746;48.688;9.428;2022-07-23T08:10:51;6.97;;;6.47;;
1509;SDS011;746;48.688;9.428;2022-07-23T08:13:13;7.10;;;6.60;;
1509;SDS011;746;48.688;9.428;2022-07-23T08:15:36;6.90;;;6.40;;
1509;SDS011;746;48.688;9.428;2022-07-23T08:17:59;8.00;;;7.30;;
1509;SDS011;746;48.688;9.428;2022-07-23T08:20:22;6.40;;;6.00;;
1509;SDS011;746;48.688;9.428;2022-07-23T08:22:45;7.50;;;6.90;;
1509;SDS011;746;48.688;9.428;2022-07-23T08:25:09;7.87;;;6.93;;
1509;SDS011;746;48.688;9.428;2022-07-23T08:27:30;7.17;;;6.67;;
1509;SDS011;746;48.688;9.428;2022-07-23T08:29:52;7.20;;;6.60;;
1509;SDS011;746;48.688;9.428;2022-07-23T08:32:14;7.60;;;7.00;;
1509;SDS011;746;48.688;9.428;2022-07-23T08:34:57;7.00;;;6.40;;
1509;SDS011;746;48.688;9.428;2022-07-23T08:37:19;7.73;;;7.17;;
1509;SDS011;746;48.688;9.428;2022-07-23T08:39:40;7.53;;;6.80;;
1509;SDS011;746;48.688;9.428;2022-07-23T08:42:03;7.83;;;6.93;;
1509;SDS011;746;48.688;9.428;2022-07-23T08:44:24;8.30;;;7.50;;
1509;SDS011;746;48.688;9.428;2022-07-23T08:46:46;8.10;;;7.50;;
1509;SDS011;746;48.688;9.428;2022-07-23T08:49:08;8.13;;;7.43;;
1509;SDS011;746;48.688;9.428;2022-07-23T08:51:32;8.20;;;7.57;;
1509;SDS011;746;48.688;9.428;2022-07-23T08:53:55;8.43;;;7.60;;
1509;SDS011;746;48.688;9.428;2022-07-23T08:56:18;8.50;;;7.80;;
1509;SDS011;746;48.688;9.428;2022-07-23T08:58:40;8.23;;;7.57;;
1509;SDS011;746;48.688;9.428;2022-07-23T09:01:02;8.40;;;7.70;;
1509;SDS011;746;48.688;9.428;2022-07-23T09:03:25;8.43;;;7.73;;
1509;SDS011;746;48.688;9.428;2022-07-23T09:05:48;7.93;;;7.33;;
1509;SDS011;746;48.688;9.428;2022-07-23T09:08:13;7.97;;;7.03;;
1509;SDS011;746;48.688;9.428;2022-07-23T09:10:45;7.77;;;7.07;;
1509;SDS011;746;48.688;9.428;2022-07-23T09:13:25;8.07;;;7.37;;
1509;SDS011;746;48.688;9.428;2022-07-23T09:15:49;7.97;;;7.37;;
1509;SDS011;746;48.688;9.428;2022-07-23T09:18:13;8.57;;;7.63;;
1509;SDS011;746;48.688;9.428;2022-07-23T09:20:37;8.90;;;8.10;;
1509;SDS011;746;48.688;9.428;2022-07-23T09:22:59;8.60;;;7.83;;
1509;SDS011;746;48.688;9.428;2022-07-23T09:25:33;8.20;;;7.60;;
1509;SDS011;746;48.688;9.428;2022-07-23T09:27:55;8.40;;;7.70;;
1509;SDS011;746;48.688;9.428;2022-07-23T09:30:18;9.23;;;8.53;;
1509;SDS011;746;48.688;9.428;2022-07-23T09:32:40;8.53;;;7.83;;
1509;SDS011;746;48.688;9.428;2022-07-23T09:35:02;8.77;;;8.00;;
1509;SDS011;746;48.688;9.428;2022-07-23T09:37:24;9.17;;;8.40;;
1509;SDS011;746;48.688;9.428;2022-07-23T09:39:46;8.93;;;8.23;;
1509;SDS011;746;48.688;9.428;2022-07-23T09:42:25;8.30;;;7.70;;
1509;SDS011;746;48.688;9.428;2022-07-23T09:44:48;9.33;;;8.57;;
1509;SDS011;746;48.688;9.428;2022-07-23T09:47:10;10.53;;;8.60;;
1509;SDS011;746;48.688;9.428;2022-07-23T09:49:32;9.00;;;8.30;;
1509;SDS011;746;48.688;9.428;2022-07-23T09:51:55;8.40;;;7.80;;
1509;SDS011;746;48.688;9.428;2022-07-23T09:54:22;9.00;;;8.30;;
1509;SDS011;746;48.688;9.428;2022-07-23T09:56:50;8.53;;;7.83;;
1509;SDS011;746;48.688;9.428;2022-07-23T09:59:14;8.30;;;7.60;;
1509;SDS011;746;48.688;9.428;2022-07-23T10:01:38;8.77;;;8.10;;
1509;SDS011;746;48.688;9.428;2022-07-23T10:04:00;8.10;;;7.40;;
1509;SDS011;746;48.688;9.428;2022-07-23T10:06:24;7.80;;;7.20;;
1509;SDS011;746;48.688;9.428;2022-07-23T10:08:45;8.20;;;7.60;;
1509;SDS011;746;48.688;9.428;2022-07-23T10:11:09;8.07;;;7.47;;
1509;SDS011;746;48.688;9.428;2022-07-23T10:13:33;8.00;;;7.30;;
1509;SDS011;746;48.688;9.428;2022-07-23T10:16:16;8.40;;;7.60;;
1509;SDS011;746;48.688;9.428;2022-07-23T10:18:46;8.70;;;8.00;;
1509;SDS011;746;48.688;9.428;2022-07-23T10:21:09;7.93;;;7.33;;
1509;SDS011;746;48.688;9.428;2022-07-23T10:23:34;8.40;;;7.60;;
1509;SDS011;746;48.688;9.428;2022-07-23T10:25:59;7.97;;;7.37;;
1509;SDS011;746;48.688;9.428;2022-07-23T10:28:41;8.30;;;7.57;;
1509;SDS011;746;48.688;9.428;2022-07-23T10:31:14;8.33;;;7.73;;
1509;SDS011;746;48.688;9.428;2022-07-23T10:34:06;8.17;;;7.47;;
1509;SDS011;746;48.688;9.428;2022-07-23T10:36:36;7.80;;;7.10;;
1509;SDS011;746;48.688;9.428;2022-07-23T10:39:03;7.37;;;6.70;;
1509;SDS011;746;48.688;9.428;2022-07-23T10:41:30;7.80;;;7.10;;
1509;SDS011;746;48.688;9.428;2022-07-23T10:44:05;7.40;;;6.80;;
1509;SDS011;746;48.688;9.428;2022-07-23T10:46:29;7.97;;;7.23;;
1509;SDS011;746;48.688;9.428;2022-07-23T10:54:37;7.33;;;6.73;;
1509;SDS011;746;48.688;9.428;2022-07-23T10:57:06;7.30;;;6.80;;
1509;SDS011;746;48.688;9.428;2022-07-23T10:59:29;7.10;;;6.60;;
1509;SDS011;746;48.688;9.428;2022-07-23T11:01:52;7.43;;;6.83;;
1509;SDS011;746;48.688;9.428;2022-07-23T11:04:13;7.37;;;6.87;;
1509;SDS011;746;48.688;9.428;2022-07-23T11:09:30;7.40;;;6.80;;
1509;SDS011;746;48.688;9.428;2022-07-23T11:14:59;7.30;;;6.80;;
1509;SDS011;746;48.688;9.428;2022-07-23T11:17:22;7.27;;;6.60;;
1509;SDS011;746;48.688;9.428;2022-07-23T11:22:41;7.30;;;6.70;;
1509;SDS011;746;48.688;9.428;2022-07-23T11:25:08;7.00;;;6.40;;
1509;SDS011;746;48.688;9.428;2022-07-23T11:27:36;6.60;;;6.20;;
1509;SDS011;746;48.688;9.428;2022-07-23T11:29:59;7.20;;;6.70;;
1509;SDS011;746;48.688;9.428;2022-07-23T11:32:40;6.77;;;6.23;;
1509;SDS011;746;48.688;9.428;2022-07-23T11:35:18;7.10;;;6.60;;
1509;SDS011;746;48.688;9.428;2022-07-23T11:37:41;7.07;;;6.57;;
1509;SDS011;746;48.688;9.428;2022-07-23T11:40:04;7.10;;;6.60;;
1509;SDS011;746;48.688;9.428;2022-07-23T11:42:28;6.80;;;6.37;;
1509;SDS011;746;48.688;9.428;2022-07-23T11:44:50;7.30;;;6.70;;
1509;SDS011;746;48.688;9.428;2022-07-23T11:47:12;7.30;;;6.70;;
1509;SDS011;746;48.688;9.428;2022-07-23T11:49:36;7.30;;;6.80;;
1509;SDS011;746;48.688;9.428;2022-07-23T11:52:04;7.60;;;7.10;;
1509;SDS011;746;48.688;9.428;2022-07-23T11:54:27;7.57;;;6.97;;
1509;SDS011;746;48.688;9.428;2022-07-23T11:56:54;8.40;;;7.70;;
1509;SDS011;746;48.688;9.428;2022-07-23T11:59:18;7.17;;;6.67;;
1509;SDS011;746;48.688;9.428;2022-07-23T12:01:43;7.40;;;6.70;;
1509;SDS011;746;48.688;9.428;2022-07-23T12:04:17;6.97;;;6.47;;
1509;SDS011;746;48.688;9.428;2022-07-23T12:06:40;7.10;;;6.63;;
1509;SDS011;746;48.688;9.428;2022-07-23T12:09:02;7.27;;;6.60;;
1509;SDS011;746;48.688;9.428;2022-07-23T12:11:24;7.63;;;6.90;;
1509;SDS011;746;48.688;9.428;2022-07-23T12:13:54;7.30;;;6.70;;
1509;SDS011;746;48.688;9.428;2022-07-23T12:16:17;7.33;;;6.67;;
1509;SDS011;746;48.688;9.428;2022-07-23T12:18:39;6.57;;;6.17;;
1509;SDS011;746;48.688;9.428;2022-07-23T12:21:03;6.83;;;6.30;;
1509;SDS011;746;48.688;9.428;2022-07-23T12:23:28;6.73;;;6.20;;
1509;SDS011;746;48.688;9.428;2022-07-23T12:25:50;6.17;;;5.67;;
1509;SDS011;746;48.688;9.428;2022-07-23T12:28:13;6.50;;;6.10;;
1509;SDS011;746;48.688;9.428;2022-07-23T12:30:37;6.13;;;5.73;;
1509;SDS011;746;48.688;9.428;2022-07-23T12:33:00;6.50;;;5.97;;
1509;SDS011;746;48.688;9.428;2022-07-23T12:35:23;6.30;;;5.90;;
1509;SDS011;746;48.688;9.428;2022-07-23T12:37:52;6.40;;;5.80;;
1509;SDS011;746;48.688;9.428;2022-07-23T12:40:20;6.67;;;6.07;;
1509;SDS011;746;48.688;9.428;2022-07-23T12:42:44;6.43;;;6.03;;
1509;SDS011;746;48.688;9.428;2022-07-23T12:45:07;6.97;;;6.27;;
1509;SDS011;746;48.688;9.428;2022-07-23T12:47:31;6.53;;;6.03;;
1509;SDS011;746;48.688;9.428;2022-07-23T12:53:05;6.03;;;5.63;;
1509;SDS011;746;48.688;9.428;2022-07-23T12:55:39;6.20;;;5.80;;
1509;SDS011;746;48.688;9.428;2022-07-23T12:58:21;6.63;;;6.23;;
1509;SDS011;746;48.688;9.428;2022-07-23T13:00:50;6.87;;;6.33;;
1509;SDS011;746;48.688;9.428;2022-07-23T13:03:34;6.30;;;5.90;;
1509;SDS011;746;48.688;9.428;2022-07-23T13:05:59;6.87;;;6.37;;
1509;SDS011;746;48.688;9.428;2022-07-23T13:08:22;6.83;;;6.37;;
1509;SDS011;746;48.688;9.428;2022-07-23T13:10:47;6.07;;;5.67;;
1509;SDS011;746;48.688;9.428;2022-07-23T13:13:11;6.57;;;6.07;;
1509;SDS011;746;48.688;9.428;2022-07-23T13:15:35;6.47;;;6.07;;
1509;SDS011;746;48.688;9.428;2022-07-23T13:17:58;6.17;;;5.77;;
1509;SDS011;746;48.688;9.428;2022-07-23T13:20:22;6.40;;;6.00;;
1509;SDS011;746;48.688;9.428;2022-07-23T13:22:44;6.63;;;6.20;;
1509;SDS011;746;48.688;9.428;2022-07-23T13:25:06;6.70;;;6.20;;
1509;SDS011;746;48.688;9.428;2022-07-23T13:27:30;12.70;;;6.03;;
1509;SDS011;746;48.688;9.428;2022-07-23T13:29:59;6.63;;;6.13;;
1509;SDS011;746;48.688;9.428;2022-07-23T13:32:21;7.03;;;6.50;;
1509;SDS011;746;48.688;9.428;2022-07-23T13:34:43;6.73;;;6.33;;
1509;SDS011;746;48.688;9.428;2022-07-23T13:37:05;6.83;;;6.33;;
1509;SDS011;746;48.688;9.428;2022-07-23T13:39:27;6.90;;;6.40;;
1509;SDS011;746;48.688;9.428;2022-07-23T13:41:57;7.20;;;6.60;;
1509;SDS011;746;48.688;9.428;2022-07-23T13:44:19;6.90;;;6.43;;
1509;SDS011;746;48.688;9.428;2022-07-23T13:46:42;7.07;;;6.53;;
1509;SDS011;746;48.688;9.428;2022-07-23T13:49:07;6.63;;;6.13;;
1509;SDS011;746;48.688;9.428;2022-07-23T13:51:29;7.10;;;6.50;;
1509;SDS011;746;48.688;9.428;2022-07-23T13:53:50;7.20;;;6.60;;
1509;SDS011;746;48.688;9.428;2022-07-23T13:56:12;6.97;;;6.57;;
1509;SDS011;746;48.688;9.428;2022-07-23T13:58:34;6.60;;;6.17;;
1509;SDS011;746;48.688;9.428;2022-07-23T14:00:57;6.80;;;6.30;;
1509;SDS011;746;48.688;9.428;2022-07-23T14:03:19;6.90;;;6.40;;
1509;SDS011;746;48.688;9.428;2022-07-23T14:05:43;7.30;;;6.63;;
1509;SDS011;746;48.688;9.428;2022-07-23T14:08:04;6.87;;;6.37;;
1509;SDS011;746;48.688;9.428;2022-07-23T14:10:26;7.20;;;6.70;;
1509;SDS011;746;48.688;9.428;2022-07-23T14:12:48;7.03;;;6.53;;
1509;SDS011;746;48.688;9.428;2022-07-23T14:15:11;7.27;;;6.77;;
1509;SDS011;746;48.688;9.428;2022-07-23T14:17:35;7.30;;;6.80;;
1509;SDS011;746;48.688;9.428;2022-07-23T14:19:57;7.00;;;6.40;;
1509;SDS011;746;48.688;9.428;2022-07-23T14:22:19;7.13;;;6.63;;
1509;SDS011;746;48.688;9.428;2022-07-23T14:24:40;6.53;;;6.13;;
1509;SDS011;746;48.688;9.428;2022-07-23T14:27:02;7.87;;;7.27;;
1509;SDS011;746;48.688;9.428;2022-07-23T14:29:25;7.67;;;7.13;;
1509;SDS011;746;48.688;9.428;2022-07-23T14:31:46;7.57;;;7.07;;
1509;SDS011;746;48.688;9.428;2022-07-23T14:34:10;8.10;;;7.40;;
1509;SDS011;746;48.688;9.428;2022-07-23T14:36:33;7.97;;;7.30;;
1509;SDS011;746;48.688;9.428;2022-07-23T14:38:54;7.33;;;6.83;;
1509;SDS011;746;48.688;9.428;2022-07-23T14:41:17;7.20;;;6.70;;
1509;SDS011;746;48.688;9.428;2022-07-23T14:43:46;7.60;;;7.00;;
1509;SDS011;746;48.688;9.428;2022-07-23T14:46:09;6.97;;;6.57;;
1509;SDS011;746;48.688;9.428;2022-07-23T14:48:31;7.53;;;7.13;;
1509;SDS011;746;48.688;9.428;2022-07-23T14:50:54;7.27;;;6.73;;
1509;SDS011;746;48.688;9.428;2022-07-23T14:53:15;7.37;;;6.80;;
1509;SDS011;746;48.688;9.428;2022-07-23T14:55:42;7.40;;;6.80;;
1509;SDS011;746;48.688;9.428;2022-07-23T14:58:04;7.23;;;6.77;;
1509;SDS011;746;48.688;9.428;2022-07-23T15:00:26;7.27;;;6.63;;
1509;SDS011;746;48.688;9.428;2022-07-23T15:02:48;7.27;;;6.73;;
1509;SDS011;746;48.688;9.428;2022-07-23T15:05:13;7.97;;;7.33;;
1509;SDS011;746;48.688;9.428;2022-07-23T15:07:39;7.37;;;6.77;;
1509;SDS011;746;48.688;9.428;2022-07-23T15:10:00;7.50;;;7.00;;
1509;SDS011;746;48.688;9.428;2022-07-23T15:12:22;7.80;;;7.20;;
1509;SDS011;746;48.688;9.428;2022-07-23T15:14:44;7.93;;;7.33;;
1509;SDS011;746;48.688;9.428;2022-07-23T15:17:06;7.87;;;7.27;;
1509;SDS011;746;48.688;9.428;2022-07-23T15:19:33;7.97;;;7.37;;
1509;SDS011;746;48.688;9.428;2022-07-23T15:21:55;8.20;;;7.60;;
1509;SDS011;746;48.688;9.428;2022-07-23T15:24:18;8.20;;;7.60;;